createdAt,value
2023-04-12T00:00:21.632Z,0.30
2023-04-12T00:02:54.428Z,0.40
2023-04-12T00:05:22.817Z,0.40
2023-04-12T00:07:54.967Z,0.40
2023-04-12T00:10:22.649Z,0.40
2023-04-12T00:12:51.409Z,0.40
2023-04-12T00:15:18.898Z,0.30
2023-04-12T00:17:47.039Z,0.47
2023-04-12T00:20:16.319Z,0.40
2023-04-12T00:22:44.966Z,0.50
2023-04-12T00:25:12.464Z,0.43
2023-04-12T00:27:40.554Z,0.40
2023-04-12T00:30:10.041Z,0.40
2023-04-12T00:32:37.492Z,0.57
2023-04-12T00:35:05.235Z,0.50
2023-04-12T00:37:32.641Z,0.32
2023-04-12T00:40:02.427Z,0.40
2023-04-12T00:42:30.279Z,0.30
2023-04-12T00:44:57.685Z,0.40
2023-04-12T00:47:26.536Z,0.50
2023-04-12T00:49:54.013Z,0.30
2023-04-12T00:52:22.121Z,0.50
2023-04-12T00:54:49.614Z,0.40
2023-04-12T00:57:17.066Z,0.30
2023-04-12T00:59:44.611Z,0.40
2023-04-12T01:02:12.140Z,0.30
2023-04-12T01:04:44.066Z,0.40
2023-04-12T01:07:16.236Z,0.40
2023-04-12T01:09:48.653Z,0.40
2023-04-12T01:12:21.528Z,0.50
2023-04-12T01:14:52.578Z,0.40
2023-04-12T01:17:24.868Z,0.50
2023-04-12T01:19:59.067Z,0.30
2023-04-12T01:22:39.244Z,0.40
2023-04-12T01:25:22.812Z,0.30
2023-04-12T01:27:54.190Z,0.40
2023-04-12T01:30:21.717Z,0.30
2023-04-12T01:32:51.740Z,0.40
2023-04-12T01:35:20.285Z,0.40
2023-04-12T01:37:48.098Z,0.30
2023-04-12T01:40:18.997Z,0.40
2023-04-12T01:42:46.505Z,0.30
2023-04-12T01:45:15.508Z,0.40
2023-04-12T01:47:43.436Z,0.40
2023-04-12T01:50:15.323Z,0.30
2023-04-12T01:52:45.069Z,0.40
2023-04-12T01:55:13.383Z,0.40
2023-04-12T01:57:41.849Z,0.38
2023-04-12T02:00:11.755Z,0.35
2023-04-12T02:02:44.877Z,0.40
2023-04-12T02:05:12.755Z,0.30
2023-04-12T02:07:40.853Z,0.35
2023-04-12T02:10:08.466Z,0.40
2023-04-12T02:12:35.952Z,0.50
2023-04-12T02:15:04.591Z,0.40
2023-04-12T02:17:32.032Z,0.50
2023-04-12T02:20:01.052Z,0.40
2023-04-12T02:22:28.513Z,0.40
2023-04-12T02:24:55.942Z,0.40
2023-04-12T02:27:23.336Z,0.50
2023-04-12T02:29:50.946Z,0.30
2023-04-12T02:32:18.434Z,0.30
2023-04-12T02:34:51.270Z,0.30
2023-04-12T02:37:24.203Z,0.40
2023-04-12T02:39:51.702Z,0.40
2023-04-12T02:42:19.644Z,0.50
2023-04-12T02:44:49.513Z,0.30
2023-04-12T02:47:16.925Z,0.40
2023-04-12T02:49:47.905Z,0.40
2023-04-12T02:52:17.882Z,0.40
2023-04-12T02:55:01.093Z,0.30
2023-04-12T02:57:28.989Z,0.30
2023-04-12T02:59:56.526Z,0.30
2023-04-12T03:02:28.111Z,0.47
2023-04-12T03:05:03.524Z,0.35
2023-04-12T03:07:40.055Z,0.40
2023-04-12T03:10:11.924Z,0.40
2023-04-12T03:12:44.223Z,0.30
2023-04-12T03:15:17.668Z,0.30
2023-04-12T03:17:49.029Z,0.40
2023-04-12T03:20:20.184Z,0.30
2023-04-12T03:22:59.234Z,0.35
2023-04-12T03:25:29.819Z,0.38
2023-04-12T03:28:06.783Z,0.40
2023-04-12T03:30:47.148Z,0.40
2023-04-12T03:33:17.590Z,0.40
2023-04-12T03:35:46.644Z,0.40
2023-04-12T03:38:15.737Z,0.32
2023-04-12T03:40:45.484Z,0.30
2023-04-12T03:43:13.061Z,0.40
2023-04-12T03:45:40.624Z,0.40
2023-04-12T03:48:08.632Z,0.40
2023-04-12T03:50:44.678Z,0.40
2023-04-12T03:53:19.022Z,0.35
2023-04-12T03:55:49.025Z,0.30
2023-04-12T03:58:18.834Z,0.30
2023-04-12T04:00:47.585Z,0.30
2023-04-12T04:03:15.205Z,0.40
2023-04-12T04:05:48.805Z,0.40
2023-04-12T04:08:18.997Z,0.40
2023-04-12T04:10:53.331Z,0.30
2023-04-12T04:13:24.951Z,0.35
2023-04-12T04:16:12.987Z,0.40
2023-04-12T04:18:41.633Z,0.30
2023-04-12T04:21:11.830Z,0.30
2023-04-12T04:23:40.269Z,0.40
2023-04-12T04:26:11.005Z,0.40
2023-04-12T04:28:50.073Z,0.50
2023-04-12T04:31:22.143Z,0.30
2023-04-12T04:33:50.852Z,0.40
2023-04-12T04:36:19.986Z,0.40
2023-04-12T04:38:52.794Z,0.47
2023-04-12T04:41:41.690Z,0.40
2023-04-12T04:44:18.248Z,0.40
2023-04-12T04:46:54.317Z,0.40
2023-04-12T04:49:21.790Z,0.40
2023-04-12T04:51:49.305Z,0.32
2023-04-12T04:54:17.304Z,0.50
2023-04-12T04:56:46.634Z,0.30
2023-04-12T04:59:17.531Z,0.40
2023-04-12T05:01:45.299Z,0.40
2023-04-12T05:04:14.054Z,0.40
2023-04-12T05:06:41.586Z,0.40
2023-04-12T05:09:10.944Z,0.30
2023-04-12T05:11:44.830Z,0.35
2023-04-12T05:14:14.289Z,0.38
2023-04-12T05:16:41.815Z,0.40
2023-04-12T05:19:09.349Z,0.30
2023-04-12T05:21:36.806Z,0.30
2023-04-12T05:24:04.495Z,0.30
2023-04-12T05:26:34.412Z,0.35
2023-04-12T05:29:04.397Z,0.40
2023-04-12T05:31:33.670Z,0.30
2023-04-12T05:34:05.351Z,0.30
2023-04-12T05:36:36.222Z,0.47
2023-04-12T05:39:04.943Z,0.50
2023-04-12T05:41:35.363Z,0.40
2023-04-12T05:44:03.527Z,0.30
2023-04-12T05:46:31.152Z,0.47
2023-04-12T05:49:00.069Z,0.40
2023-04-12T05:51:40.561Z,0.40
2023-04-12T05:54:12.767Z,0.40
2023-04-12T05:56:40.250Z,0.40
2023-04-12T05:59:09.071Z,0.40
2023-04-12T06:01:36.716Z,0.40
2023-04-12T06:04:06.270Z,0.30
2023-04-12T06:06:34.192Z,0.50
2023-04-12T06:09:02.930Z,0.40
2023-04-12T06:11:30.574Z,0.40
2023-04-12T06:13:58.437Z,0.50
2023-04-12T06:16:26.098Z,0.30
2023-04-12T06:18:53.548Z,0.40
2023-04-12T06:21:22.432Z,0.40
2023-04-12T06:23:49.906Z,0.40
2023-04-12T06:26:18.993Z,0.40
2023-04-12T06:28:46.467Z,0.50
2023-04-12T06:31:14.652Z,0.40
2023-04-12T06:33:42.882Z,0.40
2023-04-12T06:36:12.594Z,0.30
2023-04-12T06:38:42.231Z,0.40
2023-04-12T06:41:09.694Z,0.40
2023-04-12T06:43:37.656Z,0.40
2023-04-12T06:46:05.406Z,0.35
2023-04-12T06:48:32.874Z,0.40
2023-04-12T06:51:00.397Z,0.40
2023-04-12T06:53:28.041Z,0.50
2023-04-12T06:55:56.846Z,0.40
2023-04-12T06:58:24.391Z,0.55
2023-04-12T07:00:51.833Z,0.40
2023-04-12T07:03:19.363Z,0.40
2023-04-12T07:05:47.362Z,0.40
2023-04-12T07:08:14.807Z,0.40
2023-04-12T07:10:42.279Z,0.40
2023-04-12T07:13:11.138Z,0.40
2023-04-12T07:15:38.564Z,0.40
2023-04-12T07:18:06.580Z,0.40
2023-04-12T07:20:34.124Z,0.30
2023-04-12T07:23:01.678Z,0.40
2023-04-12T07:25:29.192Z,0.30
2023-04-12T07:27:56.845Z,0.43
2023-04-12T07:30:26.227Z,0.30
2023-04-12T07:36:34.164Z,0.40
2023-04-12T07:39:01.893Z,0.40
2023-04-12T07:41:29.488Z,0.40
2023-04-12T07:43:56.907Z,0.40
2023-04-12T07:46:25.928Z,0.40
2023-04-12T07:48:53.533Z,0.30
2023-04-12T07:51:20.970Z,0.40
2023-04-12T07:53:49.080Z,0.40
2023-04-12T07:56:16.654Z,0.40
2023-04-12T07:58:44.091Z,0.50
2023-04-12T08:01:12.129Z,0.43
2023-04-12T08:03:41.246Z,0.40
2023-04-12T08:06:09.139Z,0.40
2023-04-12T08:08:36.829Z,0.30
2023-04-12T08:11:06.169Z,0.40
2023-04-12T08:13:33.685Z,0.40
2023-04-12T08:16:02.442Z,0.50
2023-04-12T08:18:29.964Z,0.40
2023-04-12T08:20:59.181Z,0.32
2023-04-12T08:23:27.137Z,0.40
2023-04-12T08:25:59.315Z,0.40
2023-04-12T08:28:28.612Z,0.40
2023-04-12T08:30:56.128Z,0.43
2023-04-12T08:33:23.584Z,0.40
2023-04-12T08:35:52.563Z,0.47
2023-04-12T08:38:30.609Z,0.32
2023-04-12T08:41:05.286Z,0.40
2023-04-12T08:43:34.356Z,0.40
2023-04-12T08:46:02.203Z,0.38
2023-04-12T08:48:29.745Z,0.30
2023-04-12T08:50:57.497Z,0.40
2023-04-12T08:53:26.370Z,0.35
2023-04-12T08:55:53.968Z,0.40
2023-04-12T08:58:21.909Z,0.35
2023-04-12T09:00:49.818Z,0.30
2023-04-12T09:03:17.505Z,0.50
2023-04-12T09:05:45.362Z,0.40
2023-04-12T09:08:13.248Z,0.40
2023-04-12T09:10:42.644Z,0.30
2023-04-12T09:13:10.552Z,0.38
2023-04-12T09:15:49.319Z,0.30
2023-04-12T09:18:17.480Z,0.50
2023-04-12T09:20:45.135Z,0.47
2023-04-12T09:23:17.775Z,0.30
2023-04-12T09:25:48.299Z,0.50
2023-04-12T09:28:20.843Z,0.30
2023-04-12T09:30:51.608Z,0.40
2023-04-12T09:33:19.847Z,0.40
2023-04-12T09:35:47.816Z,0.40
2023-04-12T09:38:15.522Z,0.40
2023-04-12T09:40:42.989Z,0.30
2023-04-12T09:43:12.777Z,0.30
2023-04-12T09:45:40.463Z,0.40
2023-04-12T09:48:08.794Z,0.30
2023-04-12T09:50:36.600Z,0.30
2023-04-12T09:53:04.687Z,0.40
2023-04-12T09:55:32.957Z,0.32
2023-04-12T09:58:02.784Z,0.32
2023-04-12T10:00:34.064Z,0.30
2023-04-12T10:03:02.784Z,0.40
2023-04-12T10:05:31.070Z,0.38
2023-04-12T10:08:01.191Z,0.40
2023-04-12T10:10:32.026Z,0.40
2023-04-12T10:13:00.207Z,0.40
2023-04-12T10:15:28.001Z,0.30
2023-04-12T10:17:59.673Z,0.40
2023-04-12T10:20:29.567Z,0.40
2023-04-12T10:22:59.219Z,0.30
2023-04-12T10:25:29.920Z,0.40
2023-04-12T10:27:57.349Z,0.40
2023-04-12T10:30:26.037Z,0.35
2023-04-12T10:33:13.746Z,0.30
2023-04-12T10:35:54.996Z,0.35
2023-04-12T10:38:24.850Z,0.30
2023-04-12T10:41:07.226Z,0.40
2023-04-12T10:43:34.709Z,0.32
2023-04-12T10:46:04.965Z,0.30
2023-04-12T10:48:34.712Z,0.40
2023-04-12T10:51:23.015Z,0.35
2023-04-12T10:53:51.710Z,0.30
2023-04-12T10:56:41.164Z,0.30
2023-04-12T10:59:12.644Z,0.30
2023-04-12T11:01:42.811Z,0.40
2023-04-12T11:04:16.673Z,0.30
2023-04-12T11:06:52.390Z,0.30
2023-04-12T11:09:40.999Z,0.30
2023-04-12T11:12:13.251Z,0.30
2023-04-12T11:14:44.641Z,0.28
2023-04-12T11:17:25.466Z,0.20
2023-04-12T11:19:55.492Z,0.20
2023-04-12T11:22:23.747Z,0.30
2023-04-12T11:24:51.978Z,0.30
2023-04-12T11:27:20.513Z,0.30
2023-04-12T11:29:49.428Z,0.20
2023-04-12T11:32:17.418Z,0.35
2023-04-12T11:34:45.569Z,0.20
2023-04-12T11:37:14.618Z,0.30
2023-04-12T11:39:43.134Z,0.30
2023-04-12T11:42:15.527Z,0.20
2023-04-12T11:44:56.328Z,0.20
2023-04-12T11:47:25.322Z,0.30
2023-04-12T11:49:53.678Z,0.20
2023-04-12T11:52:22.971Z,0.20
2023-04-12T11:54:51.187Z,0.20
2023-04-12T11:57:19.384Z,0.20
2023-04-12T11:59:48.671Z,0.20
2023-04-12T12:02:23.223Z,0.20
2023-04-12T12:04:52.292Z,0.20
2023-04-12T12:07:21.347Z,0.30
2023-04-12T12:09:51.226Z,0.20
2023-04-12T12:12:19.043Z,0.20
2023-04-12T12:14:47.440Z,0.20
2023-04-12T12:17:15.886Z,0.20
2023-04-12T12:19:43.993Z,0.20
2023-04-12T12:22:15.118Z,0.30
2023-04-12T12:24:46.554Z,0.20
2023-04-12T12:27:18.543Z,0.20
2023-04-12T12:29:49.799Z,0.20
2023-04-12T12:32:18.306Z,0.20
2023-04-12T12:34:50.925Z,0.20
2023-04-12T12:37:20.765Z,0.20
2023-04-12T12:40:00.899Z,0.20
2023-04-12T12:42:29.811Z,0.20
2023-04-12T12:44:57.228Z,0.20
2023-04-12T12:47:24.862Z,0.20
2023-04-12T12:49:52.349Z,0.30
2023-04-12T12:52:19.941Z,0.20
2023-04-12T12:54:47.404Z,0.30
2023-04-12T12:57:14.889Z,0.20
2023-04-12T12:59:43.629Z,0.20
2023-04-12T13:02:11.547Z,0.20
2023-04-12T13:04:39.284Z,0.20
2023-04-12T13:07:06.819Z,0.10
2023-04-12T13:09:34.370Z,0.10
2023-04-12T13:12:02.140Z,0.20
2023-04-12T13:14:29.631Z,0.10
2023-04-12T13:16:58.416Z,0.22
2023-04-12T13:19:25.859Z,0.20
2023-04-12T13:21:53.442Z,0.20
2023-04-12T13:24:20.874Z,0.20
2023-04-12T13:26:48.361Z,0.20
2023-04-12T13:29:16.004Z,0.20
2023-04-12T13:31:43.501Z,0.20
2023-04-12T13:34:12.320Z,0.20
2023-04-12T13:36:39.743Z,0.28
2023-04-12T13:39:07.189Z,0.17
2023-04-12T13:41:34.656Z,0.20
2023-04-12T13:44:02.234Z,0.20
2023-04-12T13:46:29.725Z,0.20
2023-04-12T13:49:00.672Z,0.20
2023-04-12T13:51:29.638Z,0.20
2023-04-12T13:53:57.092Z,0.20
2023-04-12T13:56:24.629Z,0.20
2023-04-12T13:58:52.050Z,0.20
2023-04-12T14:01:22.516Z,0.20
2023-04-12T14:03:50.086Z,0.20
2023-04-12T14:06:17.535Z,0.20
2023-04-12T14:08:47.091Z,0.10
2023-04-12T14:11:15.656Z,0.20
2023-04-12T14:13:43.077Z,0.22
2023-04-12T14:16:10.974Z,0.20
2023-04-12T14:18:38.541Z,0.20
2023-04-12T14:21:06.254Z,0.20
2023-04-12T14:23:33.696Z,0.30
2023-04-12T14:26:02.485Z,0.20
2023-04-12T14:28:30.876Z,0.20
2023-04-12T14:30:58.570Z,0.20
2023-04-12T14:33:26.072Z,0.20
2023-04-12T14:35:54.419Z,0.20
2023-04-12T14:38:22.716Z,0.22
2023-04-12T14:40:51.530Z,0.30
2023-04-12T14:43:20.429Z,0.15
2023-04-12T14:45:47.906Z,0.20
2023-04-12T14:48:15.593Z,0.20
2023-04-12T14:50:43.045Z,0.20
2023-04-12T14:53:11.043Z,0.20
2023-04-12T14:55:38.499Z,0.20
2023-04-12T14:58:06.327Z,0.20
2023-04-12T15:00:35.506Z,0.20
2023-04-12T15:03:03.319Z,0.20
2023-04-12T15:05:30.926Z,0.10
2023-04-12T15:07:58.432Z,0.20
2023-04-12T15:10:26.060Z,0.20
2023-04-12T15:12:53.585Z,0.20
2023-04-12T15:15:21.404Z,0.20
2023-04-12T15:17:50.244Z,0.20
2023-04-12T15:20:17.691Z,0.20
2023-04-12T15:22:45.146Z,0.20
2023-04-12T15:25:12.637Z,0.20
2023-04-12T15:27:40.120Z,0.20
2023-04-12T15:30:10.865Z,0.20
2023-04-12T15:32:41.415Z,0.20
2023-04-12T15:37:42.018Z,0.20
2023-04-12T15:40:13.864Z,0.20
2023-04-12T15:42:43.207Z,0.20
2023-04-12T15:45:11.195Z,0.13
2023-04-12T15:47:38.725Z,0.20
2023-04-12T15:50:06.940Z,0.20
2023-04-12T15:52:36.087Z,0.20
2023-04-12T15:55:05.278Z,0.30
2023-04-12T15:57:32.893Z,0.20
2023-04-12T16:00:02.030Z,0.20
2023-04-12T16:02:33.625Z,0.20
2023-04-12T16:05:01.742Z,0.20
2023-04-12T16:07:29.774Z,0.20
2023-04-12T16:09:58.611Z,0.20
2023-04-12T16:12:26.088Z,0.20
2023-04-12T16:14:53.560Z,0.20
2023-04-12T16:17:21.203Z,0.20
2023-04-12T16:19:48.687Z,0.30
2023-04-12T16:22:16.140Z,0.20
2023-04-12T16:24:43.720Z,0.20
2023-04-12T16:27:12.634Z,0.28
2023-04-12T16:29:40.189Z,0.20
2023-04-12T16:32:07.997Z,0.20
2023-04-12T16:34:35.557Z,0.20
2023-04-12T16:37:03.476Z,0.20
2023-04-12T16:39:32.087Z,0.20
2023-04-12T16:42:01.846Z,0.20
2023-04-12T16:44:30.699Z,0.20
2023-04-12T16:46:58.291Z,0.20
2023-04-12T16:49:25.818Z,0.20
2023-04-12T16:51:53.264Z,0.20
2023-04-12T16:54:21.692Z,0.20
2023-04-12T16:56:49.607Z,0.20
2023-04-12T16:59:17.184Z,0.20
2023-04-12T17:01:46.059Z,0.20
2023-04-12T17:04:14.460Z,0.20
2023-04-12T17:06:42.830Z,0.20
2023-04-12T17:09:10.532Z,0.20
2023-04-12T17:11:38.128Z,0.20
2023-04-12T17:14:05.699Z,0.20
2023-04-12T17:16:33.215Z,0.20
2023-04-12T17:19:02.155Z,0.30
2023-04-12T17:21:30.430Z,0.20
2023-04-12T17:23:58.225Z,0.20
2023-04-12T17:26:27.252Z,0.20
2023-04-12T17:28:54.689Z,0.25
2023-04-12T17:31:22.552Z,0.20
2023-04-12T17:33:50.062Z,0.20
2023-04-12T17:36:18.971Z,0.20
2023-04-12T17:38:46.505Z,0.20
2023-04-12T17:41:13.970Z,0.20
2023-04-12T17:43:41.392Z,0.30
2023-04-12T17:46:08.886Z,0.30
2023-04-12T17:48:36.493Z,0.20
2023-04-12T17:51:05.437Z,0.20
2023-04-12T17:53:34.222Z,0.25
2023-04-12T17:56:01.977Z,0.20
2023-04-12T17:58:29.952Z,0.20
2023-04-12T18:00:57.432Z,0.30
2023-04-12T18:03:25.087Z,0.20
2023-04-12T18:05:53.551Z,0.30
2023-04-12T18:08:24.865Z,0.20
2023-04-12T18:10:53.717Z,0.25
2023-04-12T18:13:21.738Z,0.30
2023-04-12T18:15:49.299Z,0.30
2023-04-12T18:18:25.634Z,0.28
2023-04-12T18:20:54.508Z,0.20
2023-04-12T18:23:22.587Z,0.30
2023-04-12T18:25:50.019Z,0.20
2023-04-12T18:28:18.820Z,0.30
2023-04-12T18:30:46.531Z,0.30
2023-04-12T18:33:13.942Z,0.20
2023-04-12T18:35:41.457Z,0.30
2023-04-12T18:38:08.875Z,0.22
2023-04-12T18:40:37.317Z,0.30
2023-04-12T18:43:04.781Z,0.30
2023-04-12T18:45:33.580Z,0.20
2023-04-12T18:48:01.122Z,0.30
2023-04-12T18:50:28.745Z,0.30
2023-04-12T18:52:56.274Z,0.30
2023-04-12T18:55:23.710Z,0.25
2023-04-12T18:57:51.258Z,0.30
2023-04-12T19:00:19.560Z,0.32
2023-04-12T19:02:48.554Z,0.30
2023-04-12T19:05:17.401Z,0.30
2023-04-12T19:07:46.257Z,0.30
2023-04-12T19:10:14.102Z,0.30
2023-04-12T19:12:41.630Z,0.40
2023-04-12T19:15:10.465Z,0.40
2023-04-12T19:17:38.968Z,0.38
2023-04-12T19:20:09.139Z,0.40
2023-04-12T19:22:37.101Z,0.40
2023-04-12T19:25:04.728Z,0.30
2023-04-12T19:27:32.242Z,0.40
2023-04-12T19:29:59.936Z,0.32
2023-04-12T19:32:28.746Z,0.30
2023-04-12T19:34:56.266Z,0.30
2023-04-12T19:37:25.105Z,0.40
2023-04-12T19:39:52.554Z,0.30
2023-04-12T19:42:20.059Z,0.30
2023-04-12T19:44:47.497Z,0.45
2023-04-12T19:47:14.971Z,0.40
2023-04-12T19:49:42.381Z,0.40
2023-04-12T19:52:10.522Z,0.40
2023-04-12T19:54:39.469Z,0.30
2023-04-12T19:57:06.931Z,0.30
2023-04-12T19:59:34.424Z,0.30
2023-04-12T20:02:01.913Z,0.40
2023-04-12T20:04:29.498Z,0.32
2023-04-12T20:06:56.996Z,0.30
2023-04-12T20:09:26.009Z,0.32
2023-04-12T20:11:54.874Z,0.50
2023-04-12T20:14:24.429Z,0.30
2023-04-12T20:16:55.867Z,0.30
2023-04-12T20:19:23.467Z,0.35
2023-04-12T20:21:50.899Z,0.32
2023-04-12T20:24:18.329Z,0.30
2023-04-12T20:26:48.184Z,0.40
2023-04-12T20:29:19.164Z,0.40
2023-04-12T20:31:47.741Z,0.30
2023-04-12T20:34:17.543Z,0.43
2023-04-12T20:36:44.952Z,0.40
2023-04-12T20:39:12.574Z,0.30
2023-04-12T20:41:41.000Z,0.35
2023-04-12T20:44:08.423Z,0.30
2023-04-12T20:46:38.584Z,0.40
2023-04-12T20:49:07.329Z,0.32
2023-04-12T20:51:34.810Z,0.30
2023-04-12T20:54:02.835Z,0.30
2023-04-12T20:56:30.351Z,0.30
2023-04-12T20:58:57.951Z,0.40
2023-04-12T21:01:25.508Z,0.30
2023-04-12T21:03:55.770Z,0.40
2023-04-12T21:06:23.290Z,0.40
2023-04-12T21:08:51.122Z,0.40
2023-04-12T21:11:18.664Z,0.38
2023-04-12T21:13:46.911Z,0.30
2023-04-12T21:16:15.969Z,0.40
2023-04-12T21:18:43.613Z,0.30
2023-04-12T21:21:12.730Z,0.40
2023-04-12T21:23:40.947Z,0.30
2023-04-12T21:26:08.351Z,0.40
2023-04-12T21:28:35.805Z,0.40
2023-04-12T21:31:03.905Z,0.30
2023-04-12T21:33:32.128Z,0.40
2023-04-12T21:36:00.173Z,0.40
2023-04-12T21:38:29.394Z,0.40
2023-04-12T21:40:58.712Z,0.40
2023-04-12T21:43:26.275Z,0.32
2023-04-12T21:45:54.534Z,0.30
2023-04-12T21:48:22.218Z,0.35
2023-04-12T21:50:49.632Z,0.40
2023-04-12T21:53:17.639Z,0.40
2023-04-12T21:55:46.399Z,0.30
2023-04-12T21:58:13.824Z,0.30
2023-04-12T22:00:41.780Z,0.30
2023-04-12T22:03:09.351Z,0.40
2023-04-12T22:05:39.705Z,0.38
2023-04-12T22:08:07.706Z,0.30
2023-04-12T22:10:35.155Z,0.40
2023-04-12T22:13:04.244Z,0.40
2023-04-12T22:15:31.873Z,0.30
2023-04-12T22:17:59.419Z,0.40
2023-04-12T22:20:28.366Z,0.32
2023-04-12T22:22:56.118Z,0.40
2023-04-12T22:25:23.630Z,0.40
2023-04-12T22:27:55.172Z,0.40
2023-04-12T22:30:24.491Z,0.30
2023-04-12T22:32:52.464Z,0.40
2023-04-12T22:35:20.472Z,0.40
2023-04-12T22:37:48.240Z,0.40
2023-04-12T22:40:15.677Z,0.32
2023-04-12T22:42:46.404Z,0.50
2023-04-12T22:45:14.519Z,0.30
2023-04-12T22:47:43.338Z,0.30
2023-04-12T22:50:11.317Z,0.47
2023-04-12T22:52:39.579Z,0.50
2023-04-12T22:55:07.885Z,0.38
2023-04-12T22:57:36.546Z,0.30
2023-04-12T23:00:05.530Z,0.38
2023-04-12T23:02:33.390Z,0.40
2023-04-12T23:05:03.454Z,0.40
2023-04-12T23:07:31.211Z,0.40
2023-04-12T23:09:58.731Z,0.30
2023-04-12T23:12:26.153Z,0.40
2023-04-12T23:14:55.665Z,0.30
2023-04-12T23:17:23.384Z,0.32
2023-04-12T23:19:51.690Z,0.40
2023-04-12T23:22:48.588Z,0.50
2023-04-12T23:25:22.033Z,0.40
2023-04-12T23:27:49.532Z,0.30
2023-04-12T23:30:17.920Z,0.50
2023-04-12T23:32:45.401Z,0.40
2023-04-12T23:35:14.324Z,0.43
2023-04-12T23:37:43.264Z,0.38
2023-04-12T23:40:14.374Z,0.50
2023-04-12T23:42:42.928Z,0.40
2023-04-12T23:45:10.912Z,0.38
2023-04-12T23:47:38.784Z,0.40
2023-04-12T23:50:07.011Z,0.45
2023-04-12T23:52:34.427Z,0.50
2023-04-12T23:55:03.508Z,0.40
2023-04-12T23:57:30.911Z,0.40
2023-04-12T23:59:58.373Z,0.40
